Time;durP1;ratioP1;P1;durP2;ratioP2;P2;SDS_P1;SDS_P2;PMS_P1;PMS_P2;Temp;Humidity;BMP_temperature;BMP_pressure;BME280_temperature;BME280_humidity;BME280_pressure;Samples;Min_cycle;Max_cycle;Signal;HPM_P1;HPM_P2
2022/03/15 00:01:27;;;;;;;3.60;2.63;;;;;;;;;;5082121;28;20188;-56
2022/03/15 00:03:53;;;;;;;4.40;2.40;;;;;;;;;;5065276;28;20262;-55
2022/03/15 00:06:21;;;;;;;4.47;2.50;;;;;;;;;;5058490;28;20173;-56
2022/03/15 00:08:48;;;;;;;2.73;2.50;;;;;;;;;;5062060;28;20271;-57
2022/03/15 00:11:14;;;;;;;2.73;2.33;;;;;;;;;;5049798;28;20172;-57
2022/03/15 00:13:41;;;;;;;3.43;2.40;;;;;;;;;;5066884;28;20718;-55
2022/03/15 00:16:08;;;;;;;4.57;2.47;;;;;;;;;;5083024;28;20788;-56
2022/03/15 00:18:35;;;;;;;2.67;2.33;;;;;;;;;;5065811;28;20180;-57
2022/03/15 00:21:02;;;;;;;4.07;2.40;;;;;;;;;;5066612;28;20172;-57
2022/03/15 00:23:29;;;;;;;2.40;2.20;;;;;;;;;;5074244;28;20286;-59
2022/03/15 00:25:56;;;;;;;2.63;2.13;;;;;;;;;;5059834;28;20325;-55
2022/03/15 00:28:22;;;;;;;6.70;2.83;;;;;;;;;;5082443;28;20241;-56
2022/03/15 00:30:49;;;;;;;4.73;2.90;;;;;;;;;;5064252;28;20663;-56
2022/03/15 00:33:16;;;;;;;4.03;2.70;;;;;;;;;;5067216;28;20188;-55
2022/03/15 00:35:43;;;;;;;2.67;2.47;;;;;;;;;;5066451;28;20635;-56
2022/03/15 00:38:09;;;;;;;2.80;2.47;;;;;;;;;;5081745;28;20181;-54
2022/03/15 00:40:36;;;;;;;3.00;2.60;;;;;;;;;;5079848;28;20236;-56
2022/03/15 00:43:02;;;;;;;2.93;2.70;;;;;;;;;;5064099;28;20839;-59
2022/03/15 00:45:29;;;;;;;3.70;3.17;;;;;;;;;;5062065;28;20215;-55
2022/03/15 00:47:57;;;;;;;3.07;2.80;;;;;;;;;;5059341;28;20597;-56
2022/03/15 00:50:24;;;;;;;4.60;2.87;;;;;;;;;;5065742;28;20195;-57
2022/03/15 00:52:51;;;;;;;4.50;2.80;;;;;;;;;;5064754;28;20175;-55
2022/03/15 00:55:18;;;;;;;3.30;3.00;;;;;;;;;;5065247;28;20574;-59
2022/03/15 00:57:45;;;;;;;3.03;2.70;;;;;;;;;;5063788;28;20203;-56
2022/03/15 01:00:12;;;;;;;2.70;2.50;;;;;;;;;;5048983;28;20176;-56
2022/03/15 01:02:39;;;;;;;2.57;2.37;;;;;;;;;;5061838;28;20195;-55
2022/03/15 01:05:06;;;;;;;3.07;2.50;;;;;;;;;;5063028;28;20176;-56
2022/03/15 01:07:32;;;;;;;3.33;2.90;;;;;;;;;;5058676;28;20176;-55
2022/03/15 01:09:59;;;;;;;4.57;2.77;;;;;;;;;;5064651;28;20219;-58
2022/03/15 01:12:26;;;;;;;2.93;2.63;;;;;;;;;;5063580;28;20800;-54
2022/03/15 01:14:52;;;;;;;2.80;2.60;;;;;;;;;;5063914;28;20230;-57
2022/03/15 01:17:18;;;;;;;3.60;2.20;;;;;;;;;;5051198;28;20766;-56
2022/03/15 01:19:45;;;;;;;3.80;2.53;;;;;;;;;;5065097;28;20180;-59
2022/03/15 01:22:12;;;;;;;3.50;2.87;;;;;;;;;;5057564;28;20176;-55
2022/03/15 01:24:38;;;;;;;3.33;3.03;;;;;;;;;;5063255;28;20234;-56
2022/03/15 01:27:04;;;;;;;2.87;2.53;;;;;;;;;;5081110;28;20234;-55
2022/03/15 01:29:31;;;;;;;3.73;2.90;;;;;;;;;;5062349;28;20172;-56
2022/03/15 01:32:00;;;;;;;3.60;2.77;;;;;;;;;;5064902;28;20183;-55
2022/03/15 01:34:29;;;;;;;5.20;2.90;;;;;;;;;;5064922;28;20254;-54
2022/03/15 01:36:56;;;;;;;2.83;2.53;;;;;;;;;;5058045;28;20218;-56
2022/03/15 01:39:22;;;;;;;5.03;2.93;;;;;;;;;;5076925;28;20199;-54
2022/03/15 01:41:49;;;;;;;3.03;2.77;;;;;;;;;;5082363;28;20233;-56
2022/03/15 01:44:22;;;;;;;5.00;2.90;;;;;;;;;;5063086;28;20207;-54
2022/03/15 01:46:50;;;;;;;4.93;2.73;;;;;;;;;;5062488;28;20799;-58
2022/03/15 01:49:16;;;;;;;4.33;3.00;;;;;;;;;;5081039;28;20649;-53
2022/03/15 01:51:46;;;;;;;7.07;3.27;;;;;;;;;;5059822;28;20306;-56
2022/03/15 01:54:13;;;;;;;4.00;2.80;;;;;;;;;;5063943;28;20699;-55
2022/03/15 01:56:40;;;;;;;3.37;2.90;;;;;;;;;;5058671;28;20231;-55
2022/03/15 01:59:08;;;;;;;3.03;2.83;;;;;;;;;;5061472;28;20183;-55
2022/03/15 02:01:34;;;;;;;5.23;3.77;;;;;;;;;;5060946;28;20208;-55
2022/03/15 02:04:01;;;;;;;3.87;3.03;;;;;;;;;;5074898;28;20202;-56
2022/03/15 02:06:27;;;;;;;3.67;3.13;;;;;;;;;;5055656;28;20735;-56
2022/03/15 02:08:54;;;;;;;3.83;2.67;;;;;;;;;;5061975;28;20200;-56
2022/03/15 02:11:20;;;;;;;3.97;2.83;;;;;;;;;;5075431;28;20538;-55
2022/03/15 02:13:47;;;;;;;3.47;3.00;;;;;;;;;;5060082;28;20192;-55
2022/03/15 02:16:14;;;;;;;6.13;3.30;;;;;;;;;;5073318;28;20176;-56
2022/03/15 02:18:40;;;;;;;3.37;3.00;;;;;;;;;;5056623;28;20241;-57
2022/03/15 02:21:07;;;;;;;3.33;2.73;;;;;;;;;;5063503;28;20320;-55
2022/03/15 02:23:34;;;;;;;3.40;3.10;;;;;;;;;;5063427;28;20211;-58
2022/03/15 02:26:00;;;;;;;4.83;2.97;;;;;;;;;;5063278;28;20184;-57
2022/03/15 02:28:27;;;;;;;4.73;3.20;;;;;;;;;;5063719;28;20184;-56
2022/03/15 02:30:53;;;;;;;5.20;2.73;;;;;;;;;;5062074;28;20267;-55
2022/03/15 02:33:19;;;;;;;3.90;3.10;;;;;;;;;;5066204;28;20266;-56
2022/03/15 02:35:46;;;;;;;3.87;2.97;;;;;;;;;;5060523;28;20274;-56
2022/03/15 02:38:12;;;;;;;3.67;3.23;;;;;;;;;;5063677;28;20184;-55
2022/03/15 02:40:39;;;;;;;3.43;3.03;;;;;;;;;;5083940;28;20229;-55
2022/03/15 02:43:05;;;;;;;3.57;3.27;;;;;;;;;;5072216;28;20199;-57
2022/03/15 02:45:32;;;;;;;4.37;3.50;;;;;;;;;;5065050;28;20184;-55
2022/03/15 02:47:58;;;;;;;3.53;3.23;;;;;;;;;;5078310;28;20182;-55
2022/03/15 02:50:25;;;;;;;3.90;2.90;;;;;;;;;;5061554;28;21466;-56
2022/03/15 02:52:51;;;;;;;3.97;3.23;;;;;;;;;;5059602;28;20188;-56
2022/03/15 02:55:18;;;;;;;4.00;3.30;;;;;;;;;;5079184;28;20652;-56
2022/03/15 02:57:44;;;;;;;4.37;3.17;;;;;;;;;;5079404;28;20318;-56
2022/03/15 03:00:11;;;;;;;3.67;3.30;;;;;;;;;;5061680;28;20719;-56
2022/03/15 03:02:37;;;;;;;4.20;3.40;;;;;;;;;;5080292;28;20180;-55
2022/03/15 03:05:04;;;;;;;3.00;2.70;;;;;;;;;;5073056;28;20728;-57
2022/03/15 03:07:30;;;;;;;7.80;3.90;;;;;;;;;;5073811;28;20259;-59
2022/03/15 03:09:56;;;;;;;5.30;3.57;;;;;;;;;;5067426;28;20188;-55
2022/03/15 03:12:24;;;;;;;3.77;3.13;;;;;;;;;;5075113;28;20224;-55
2022/03/15 03:14:51;;;;;;;3.50;3.03;;;;;;;;;;5049725;28;20575;-55
2022/03/15 03:17:18;;;;;;;3.33;3.03;;;;;;;;;;5057443;28;20238;-55
2022/03/15 03:19:44;;;;;;;4.07;2.67;;;;;;;;;;5065714;28;20643;-55
2022/03/15 03:22:11;;;;;;;3.60;3.30;;;;;;;;;;5062296;28;20677;-59
2022/03/15 03:24:37;;;;;;;4.10;3.30;;;;;;;;;;5050246;28;20200;-55
2022/03/15 03:27:04;;;;;;;3.97;3.43;;;;;;;;;;5077047;28;20582;-56
2022/03/15 03:29:32;;;;;;;3.40;2.90;;;;;;;;;;5048024;28;20310;-55
2022/03/15 03:31:58;;;;;;;5.80;3.63;;;;;;;;;;5064716;28;20478;-55
2022/03/15 03:34:25;;;;;;;3.23;2.90;;;;;;;;;;5068386;28;20187;-57
2022/03/15 03:36:51;;;;;;;4.40;3.33;;;;;;;;;;5065016;28;20187;-56
2022/03/15 03:39:17;;;;;;;4.53;3.00;;;;;;;;;;5065703;28;20263;-55
2022/03/15 03:41:44;;;;;;;4.27;3.00;;;;;;;;;;5065669;28;20298;-55
2022/03/15 03:44:11;;;;;;;3.00;2.70;;;;;;;;;;5076975;28;20200;-55
2022/03/15 03:46:37;;;;;;;4.23;3.17;;;;;;;;;;5067020;28;20188;-55
2022/03/15 03:49:04;;;;;;;3.40;3.10;;;;;;;;;;5064701;28;20187;-55
2022/03/15 03:51:30;;;;;;;3.80;3.07;;;;;;;;;;5071069;28;20179;-56
2022/03/15 03:53:56;;;;;;;3.60;3.07;;;;;;;;;;5062296;28;20180;-55
2022/03/15 03:56:22;;;;;;;3.37;3.03;;;;;;;;;;5067396;28;20183;-55
2022/03/15 03:58:48;;;;;;;3.43;2.70;;;;;;;;;;5080632;28;20179;-55
2022/03/15 04:01:18;;;;;;;5.70;5.13;;;;;;;;;;5081314;28;20188;-58
2022/03/15 04:03:44;;;;;;;3.80;2.90;;;;;;;;;;5068006;28;20279;-54
2022/03/15 04:06:11;;;;;;;3.40;3.00;;;;;;;;;;5068445;28;20523;-55
2022/03/15 04:08:37;;;;;;;3.40;3.00;;;;;;;;;;5068072;28;20232;-56
2022/03/15 04:11:04;;;;;;;4.10;3.50;;;;;;;;;;5083506;28;20448;-54
2022/03/15 04:13:30;;;;;;;3.80;3.40;;;;;;;;;;5065546;28;20576;-55
2022/03/15 04:15:57;;;;;;;3.83;3.40;;;;;;;;;;5067928;28;20229;-56
2022/03/15 04:18:23;;;;;;;4.53;4.13;;;;;;;;;;5067112;28;20194;-54
2022/03/15 04:20:50;;;;;;;3.07;2.83;;;;;;;;;;5067663;28;20690;-54
2022/03/15 04:23:16;;;;;;;3.90;3.43;;;;;;;;;;5067273;28;20211;-56
2022/03/15 04:25:43;;;;;;;3.80;3.33;;;;;;;;;;5063231;28;20172;-55
2022/03/15 04:28:09;;;;;;;3.33;3.03;;;;;;;;;;5078675;28;20199;-58
2022/03/15 04:30:35;;;;;;;4.43;3.37;;;;;;;;;;5066424;28;20244;-55
2022/03/15 04:33:02;;;;;;;3.27;2.97;;;;;;;;;;5068258;28;20190;-56
2022/03/15 04:35:32;;;;;;;3.17;2.83;;;;;;;;;;5068884;28;20634;-54
2022/03/15 04:38:00;;;;;;;4.50;3.83;;;;;;;;;;5060732;28;20343;-55
2022/03/15 04:40:26;;;;;;;3.93;3.37;;;;;;;;;;5080113;28;20179;-55
2022/03/15 04:42:54;;;;;;;3.97;3.07;;;;;;;;;;5065977;28;20582;-54
2022/03/15 04:45:21;;;;;;;3.90;2.80;;;;;;;;;;5063861;28;20227;-55
2022/03/15 04:47:48;;;;;;;3.30;2.97;;;;;;;;;;5062837;28;20220;-55
2022/03/15 04:50:15;;;;;;;3.73;3.17;;;;;;;;;;5083228;28;20183;-55
2022/03/15 04:52:41;;;;;;;4.00;3.60;;;;;;;;;;5077201;28;20212;-55
2022/03/15 04:55:08;;;;;;;4.33;3.23;;;;;;;;;;5066881;28;20191;-54
2022/03/15 04:57:35;;;;;;;3.60;3.30;;;;;;;;;;5075469;28;20219;-57
2022/03/15 05:00:02;;;;;;;3.30;3.00;;;;;;;;;;5063056;28;20183;-57
2022/03/15 05:02:28;;;;;;;3.60;3.27;;;;;;;;;;5064676;28;20591;-57
2022/03/15 05:04:55;;;;;;;4.87;3.17;;;;;;;;;;5066212;28;20196;-57
2022/03/15 05:07:21;;;;;;;4.37;4.07;;;;;;;;;;5082260;28;20239;-56
2022/03/15 05:12:33;;;;;;;3.50;2.90;;;;;;;;;;5082589;28;20294;-58
2022/03/15 05:14:59;;;;;;;4.23;3.73;;;;;;;;;;5082347;28;20587;-57
2022/03/15 05:17:26;;;;;;;3.60;3.30;;;;;;;;;;5064508;28;20184;-58
2022/03/15 05:19:52;;;;;;;3.63;2.90;;;;;;;;;;5073852;28;20191;-58
2022/03/15 05:22:21;;;;;;;4.03;3.50;;;;;;;;;;5060679;28;20188;-57
2022/03/15 05:24:47;;;;;;;3.43;3.13;;;;;;;;;;5079765;28;20776;-58
2022/03/15 05:27:13;;;;;;;4.93;4.53;;;;;;;;;;5074027;28;21578;-58
2022/03/15 05:29:39;;;;;;;3.27;2.97;;;;;;;;;;5082094;28;20631;-57
2022/03/15 05:32:05;;;;;;;3.43;3.13;;;;;;;;;;5073528;28;20675;-56
2022/03/15 05:34:31;;;;;;;4.03;3.10;;;;;;;;;;5082481;28;20722;-57
2022/03/15 05:36:57;;;;;;;3.30;3.00;;;;;;;;;;5070234;28;20194;-59
2022/03/15 05:39:23;;;;;;;6.23;3.60;;;;;;;;;;5072351;28;20184;-57
2022/03/15 05:41:49;;;;;;;4.27;3.30;;;;;;;;;;5079915;28;20184;-57
2022/03/15 05:44:15;;;;;;;3.93;2.93;;;;;;;;;;5076570;28;20675;-58
2022/03/15 05:46:42;;;;;;;2.83;2.60;;;;;;;;;;5060884;28;20183;-57
2022/03/15 05:49:08;;;;;;;4.33;3.20;;;;;;;;;;5082264;28;20190;-57
2022/03/15 05:51:34;;;;;;;3.17;2.80;;;;;;;;;;5080701;28;20188;-58
2022/03/15 05:54:00;;;;;;;3.13;2.70;;;;;;;;;;5081844;28;20180;-58
2022/03/15 05:56:26;;;;;;;3.30;3.00;;;;;;;;;;5075963;28;20247;-58
2022/03/15 05:58:52;;;;;;;3.37;3.00;;;;;;;;;;5078562;28;20180;-57
2022/03/15 06:01:18;;;;;;;6.33;3.77;;;;;;;;;;5080892;28;20703;-57
2022/03/15 06:03:44;;;;;;;3.40;2.87;;;;;;;;;;5079751;28;20222;-57
2022/03/15 06:06:10;;;;;;;3.90;2.90;;;;;;;;;;5082693;28;20183;-57
2022/03/15 06:08:36;;;;;;;3.27;2.97;;;;;;;;;;5076835;28;20220;-58
2022/03/15 06:11:03;;;;;;;3.47;3.13;;;;;;;;;;5083668;28;20179;-58
2022/03/15 06:13:29;;;;;;;5.13;3.80;;;;;;;;;;5076631;28;20231;-58
2022/03/15 06:15:55;;;;;;;6.03;2.93;;;;;;;;;;5076236;28;20256;-57
2022/03/15 06:18:21;;;;;;;4.17;2.97;;;;;;;;;;5080687;28;20187;-58
2022/03/15 06:20:47;;;;;;;6.70;3.13;;;;;;;;;;5077905;28;20330;-57
2022/03/15 06:23:16;;;;;;;4.53;3.40;;;;;;;;;;5066528;28;20244;-56
2022/03/15 06:25:43;;;;;;;4.20;2.90;;;;;;;;;;5088996;28;20218;-57
2022/03/15 06:28:09;;;;;;;4.53;2.90;;;;;;;;;;5073832;28;20180;-58
2022/03/15 06:30:35;;;;;;;3.43;3.13;;;;;;;;;;5083217;28;20183;-58
2022/03/15 06:33:01;;;;;;;4.37;3.07;;;;;;;;;;5062331;28;20175;-58
2022/03/15 06:35:29;;;;;;;3.97;3.47;;;;;;;;;;5058946;28;20196;-58
2022/03/15 06:37:56;;;;;;;3.53;2.97;;;;;;;;;;5077277;28;20635;-58
2022/03/15 06:40:25;;;;;;;4.57;3.10;;;;;;;;;;5082102;28;20188;-58
2022/03/15 06:42:52;;;;;;;3.90;3.00;;;;;;;;;;5084703;28;20180;-58
2022/03/15 06:45:18;;;;;;;3.63;3.10;;;;;;;;;;5074638;28;20192;-58
2022/03/15 06:47:44;;;;;;;3.87;2.90;;;;;;;;;;5079064;28;20185;-58
2022/03/15 06:50:12;;;;;;;3.63;3.33;;;;;;;;;;5076526;28;20181;-58
2022/03/15 06:52:39;;;;;;;3.43;2.93;;;;;;;;;;5075008;28;20188;-59
2022/03/15 06:55:06;;;;;;;3.40;2.70;;;;;;;;;;5068878;28;20567;-59
2022/03/15 06:57:32;;;;;;;3.60;3.13;;;;;;;;;;5078921;28;20196;-56
2022/03/15 06:59:59;;;;;;;4.47;3.50;;;;;;;;;;5070513;28;20682;-55
2022/03/15 07:02:26;;;;;;;6.30;4.00;;;;;;;;;;5073579;28;20184;-56
2022/03/15 07:04:52;;;;;;;7.03;4.57;;;;;;;;;;5072758;28;20212;-56
2022/03/15 07:07:19;;;;;;;6.43;4.60;;;;;;;;;;5082756;28;20188;-55
2022/03/15 07:09:46;;;;;;;4.40;3.93;;;;;;;;;;5081095;28;20192;-56
2022/03/15 07:12:12;;;;;;;9.40;4.63;;;;;;;;;;5079499;28;20664;-55
2022/03/15 07:14:38;;;;;;;7.37;4.73;;;;;;;;;;5089172;28;20179;-56
2022/03/15 07:17:04;;;;;;;8.57;4.87;;;;;;;;;;5082175;28;20216;-55
2022/03/15 07:19:30;;;;;;;7.40;4.63;;;;;;;;;;5081494;28;20191;-56
2022/03/15 07:21:56;;;;;;;5.37;4.50;;;;;;;;;;5078152;28;20180;-56
2022/03/15 07:24:22;;;;;;;6.97;4.70;;;;;;;;;;5088140;28;20222;-56
2022/03/15 07:26:49;;;;;;;6.87;4.57;;;;;;;;;;5080957;28;20188;-56
2022/03/15 07:29:15;;;;;;;7.83;5.13;;;;;;;;;;5090203;28;20647;-56
2022/03/15 07:31:41;;;;;;;7.50;5.27;;;;;;;;;;5082467;28;20264;-55
2022/03/15 07:34:07;;;;;;;8.67;5.03;;;;;;;;;;5082388;28;20224;-56
2022/03/15 07:36:36;;;;;;;8.80;5.20;;;;;;;;;;5083741;28;20199;-56
2022/03/15 07:39:03;;;;;;;6.40;4.57;;;;;;;;;;5071629;28;20260;-56
2022/03/15 07:41:29;;;;;;;12.03;4.97;;;;;;;;;;5080412;28;20207;-55
2022/03/15 07:43:55;;;;;;;7.97;4.80;;;;;;;;;;5076263;28;20277;-58
2022/03/15 07:46:21;;;;;;;6.43;4.03;;;;;;;;;;5082216;28;20172;-56
2022/03/15 07:48:47;;;;;;;7.33;4.33;;;;;;;;;;5063229;28;20304;-57
2022/03/15 07:51:13;;;;;;;5.47;4.23;;;;;;;;;;5085449;28;20546;-57
2022/03/15 07:53:39;;;;;;;9.07;4.33;;;;;;;;;;5080254;28;20199;-56
2022/03/15 07:56:05;;;;;;;8.17;4.20;;;;;;;;;;5082850;28;20504;-56
2022/03/15 07:58:31;;;;;;;8.73;4.10;;;;;;;;;;5068952;28;20192;-56
2022/03/15 08:00:58;;;;;;;7.67;4.33;;;;;;;;;;5073500;28;20208;-57
2022/03/15 08:03:25;;;;;;;6.57;4.23;;;;;;;;;;5089768;28;20200;-56
2022/03/15 08:05:51;;;;;;;6.93;4.83;;;;;;;;;;5082906;28;20192;-57
2022/03/15 08:08:17;;;;;;;8.30;3.70;;;;;;;;;;5076898;28;20192;-56
2022/03/15 08:10:43;;;;;;;7.67;4.57;;;;;;;;;;5080402;28;20175;-57
2022/03/15 08:13:10;;;;;;;5.40;3.80;;;;;;;;;;5071544;28;20220;-57
2022/03/15 08:15:36;;;;;;;5.43;3.70;;;;;;;;;;5072091;28;20180;-56
2022/03/15 08:18:03;;;;;;;6.33;3.90;;;;;;;;;;5062353;28;20187;-56
2022/03/15 08:20:45;;;;;;;7.47;3.97;;;;;;;;;;5057844;28;20184;-56
2022/03/15 08:23:12;;;;;;;5.50;3.50;;;;;;;;;;5058331;28;20205;-55
2022/03/15 08:25:38;;;;;;;4.37;3.43;;;;;;;;;;5062418;28;20204;-55
2022/03/15 08:28:05;;;;;;;7.30;3.67;;;;;;;;;;5069182;28;20299;-56
2022/03/15 08:30:31;;;;;;;5.73;3.43;;;;;;;;;;5068885;28;20259;-56
2022/03/15 08:32:58;;;;;;;6.40;3.40;;;;;;;;;;5067446;28;20207;-57
2022/03/15 08:35:24;;;;;;;4.90;3.33;;;;;;;;;;5041775;28;20184;-57
2022/03/15 08:37:53;;;;;;;4.90;3.30;;;;;;;;;;5058198;28;20279;-57
2022/03/15 08:40:21;;;;;;;4.70;3.10;;;;;;;;;;5057045;28;20233;-57
2022/03/15 08:42:47;;;;;;;5.33;3.10;;;;;;;;;;5049923;28;20215;-57
2022/03/15 08:45:13;;;;;;;4.77;3.47;;;;;;;;;;5058424;28;20201;-57
2022/03/15 08:47:40;;;;;;;3.10;2.77;;;;;;;;;;5049956;28;20531;-56
2022/03/15 08:50:06;;;;;;;6.80;3.00;;;;;;;;;;5067869;28;20180;-58
2022/03/15 08:52:33;;;;;;;3.60;2.70;;;;;;;;;;5053164;28;20551;-57
2022/03/15 08:54:59;;;;;;;6.40;3.40;;;;;;;;;;5070057;28;20636;-56
2022/03/15 08:57:25;;;;;;;7.80;2.77;;;;;;;;;;5055298;28;20232;-56
2022/03/15 08:59:51;;;;;;;5.77;2.87;;;;;;;;;;5070547;28;20215;-56
2022/03/15 09:02:17;;;;;;;2.60;2.40;;;;;;;;;;5057791;28;20216;-57
2022/03/15 09:04:46;;;;;;;5.57;3.03;;;;;;;;;;5051439;28;20207;-57
2022/03/15 09:07:12;;;;;;;3.77;2.57;;;;;;;;;;5054497;28;20260;-57
2022/03/15 09:09:38;;;;;;;3.87;2.33;;;;;;;;;;5042126;28;20203;-57
2022/03/15 09:12:05;;;;;;;9.80;2.97;;;;;;;;;;5075834;28;20227;-57
2022/03/15 09:14:31;;;;;;;7.80;3.07;;;;;;;;;;5088524;28;20183;-57
2022/03/15 09:16:57;;;;;;;4.90;2.80;;;;;;;;;;5089130;28;20191;-57
2022/03/15 09:19:24;;;;;;;4.07;2.47;;;;;;;;;;5101074;28;20205;-57
2022/03/15 09:21:50;;;;;;;5.17;2.97;;;;;;;;;;5077471;28;20527;-57
2022/03/15 09:24:16;;;;;;;4.10;2.43;;;;;;;;;;5069368;28;20208;-56
2022/03/15 09:26:43;;;;;;;6.87;3.17;;;;;;;;;;5086542;28;20238;-56
2022/03/15 09:29:10;;;;;;;3.30;2.40;;;;;;;;;;5071460;28;20592;-57
2022/03/15 09:31:36;;;;;;;6.43;2.70;;;;;;;;;;5086920;28;20253;-56
2022/03/15 09:34:02;;;;;;;7.13;2.77;;;;;;;;;;5089438;28;20548;-56
2022/03/15 09:36:29;;;;;;;2.80;2.43;;;;;;;;;;5087795;28;20679;-57
2022/03/15 09:38:55;;;;;;;6.07;2.80;;;;;;;;;;5077641;28;20550;-56
2022/03/15 09:41:24;;;;;;;4.80;2.80;;;;;;;;;;5082143;28;20272;-57
2022/03/15 09:43:51;;;;;;;3.30;2.87;;;;;;;;;;5068675;28;20246;-57
2022/03/15 09:46:18;;;;;;;3.50;2.63;;;;;;;;;;5093123;28;20179;-57
2022/03/15 09:48:45;;;;;;;5.40;2.60;;;;;;;;;;5105077;28;20176;-57
2022/03/15 09:51:15;;;;;;;4.57;3.27;;;;;;;;;;5087653;28;20619;-56
2022/03/15 09:53:42;;;;;;;3.87;2.33;;;;;;;;;;5087294;28;20620;-57
2022/03/15 09:56:08;;;;;;;4.20;2.87;;;;;;;;;;5088448;28;20226;-57
2022/03/15 09:58:35;;;;;;;7.13;2.63;;;;;;;;;;5088271;28;20274;-57
2022/03/15 10:01:01;;;;;;;3.73;2.90;;;;;;;;;;5085116;28;20176;-56
2022/03/15 10:03:27;;;;;;;6.93;2.53;;;;;;;;;;5094940;28;20213;-57
2022/03/15 10:05:54;;;;;;;4.10;3.03;;;;;;;;;;5104648;28;20179;-57
2022/03/15 10:08:20;;;;;;;6.07;2.33;;;;;;;;;;5086755;28;20665;-56
2022/03/15 10:10:50;;;;;;;4.27;2.83;;;;;;;;;;5088292;28;20179;-57
2022/03/15 10:13:17;;;;;;;5.07;2.67;;;;;;;;;;5087365;28;20211;-57
2022/03/15 10:15:53;;;;;;;5.37;2.27;;;;;;;;;;5088549;28;20179;-57
2022/03/15 10:18:19;;;;;;;4.20;2.67;;;;;;;;;;5091996;28;20198;-57
2022/03/15 10:20:46;;;;;;;6.50;2.53;;;;;;;;;;5098587;28;20201;-57
2022/03/15 10:23:14;;;;;;;6.17;2.57;;;;;;;;;;5086242;28;20186;-58
2022/03/15 10:25:45;;;;;;;6.77;2.60;;;;;;;;;;5088173;28;20262;-57
2022/03/15 10:28:13;;;;;;;5.00;2.80;;;;;;;;;;5083880;28;20631;-57
2022/03/15 10:30:39;;;;;;;5.07;2.83;;;;;;;;;;5074597;28;20176;-57
2022/03/15 10:33:08;;;;;;;4.53;2.73;;;;;;;;;;5109135;28;20170;-57
2022/03/15 10:35:39;;;;;;;5.73;2.73;;;;;;;;;;5091013;28;20180;-57
2022/03/15 10:38:06;;;;;;;8.13;2.90;;;;;;;;;;5085203;28;20179;-57
2022/03/15 10:40:34;;;;;;;4.60;2.77;;;;;;;;;;5087058;28;20263;-57
2022/03/15 10:43:20;;;;;;;4.20;2.50;;;;;;;;;;5073838;28;20191;-57
2022/03/15 10:45:50;;;;;;;3.73;2.40;;;;;;;;;;5062496;28;20527;-57
2022/03/15 10:48:24;;;;;;;3.87;2.17;;;;;;;;;;5092237;28;20286;-57
2022/03/15 10:50:54;;;;;;;6.47;2.57;;;;;;;;;;5071282;28;20171;-57
2022/03/15 10:53:22;;;;;;;6.73;2.90;;;;;;;;;;5069185;28;20179;-57
2022/03/15 10:55:48;;;;;;;6.13;2.97;;;;;;;;;;5092382;28;20198;-57
2022/03/15 10:58:20;;;;;;;4.90;2.97;;;;;;;;;;5091443;28;20190;-57
2022/03/15 11:00:50;;;;;;;3.23;2.53;;;;;;;;;;5081299;28;20176;-58
2022/03/15 11:03:23;;;;;;;4.77;3.00;;;;;;;;;;5094067;28;20187;-57
2022/03/15 11:05:50;;;;;;;3.10;2.70;;;;;;;;;;5080974;28;20186;-57
2022/03/15 11:08:18;;;;;;;2.57;2.37;;;;;;;;;;5091040;28;20194;-57
2022/03/15 11:10:50;;;;;;;4.10;2.60;;;;;;;;;;5092176;28;20258;-57
2022/03/15 11:13:17;;;;;;;4.37;2.53;;;;;;;;;;5091576;28;20703;-57
2022/03/15 11:15:48;;;;;;;2.93;2.53;;;;;;;;;;5091550;28;20175;-57
2022/03/15 11:18:15;;;;;;;4.47;2.63;;;;;;;;;;5064487;28;20180;-57
2022/03/15 11:20:42;;;;;;;6.13;2.60;;;;;;;;;;5089890;28;20279;-58
2022/03/15 11:23:11;;;;;;;4.23;3.17;;;;;;;;;;5088492;28;20290;-58
2022/03/15 11:25:38;;;;;;;3.10;2.73;;;;;;;;;;5064894;28;20177;-58
2022/03/15 11:28:12;;;;;;;3.97;2.70;;;;;;;;;;5091761;28;20206;-58
2022/03/15 11:30:39;;;;;;;3.60;2.70;;;;;;;;;;5088049;28;20180;-58
2022/03/15 11:33:06;;;;;;;4.57;2.40;;;;;;;;;;5102197;28;20818;-58
2022/03/15 11:35:33;;;;;;;5.80;3.50;;;;;;;;;;5092153;28;20176;-58
2022/03/15 11:38:02;;;;;;;4.63;2.87;;;;;;;;;;5076961;28;20236;-57
2022/03/15 11:40:29;;;;;;;3.43;2.83;;;;;;;;;;5077827;28;20648;-58
2022/03/15 11:43:14;;;;;;;4.23;2.63;;;;;;;;;;5091084;28;20246;-58
2022/03/15 11:45:45;;;;;;;5.70;3.00;;;;;;;;;;5087431;28;20271;-56
2022/03/15 11:48:13;;;;;;;4.77;2.50;;;;;;;;;;5091511;28;20519;-57
2022/03/15 11:50:44;;;;;;;3.07;2.80;;;;;;;;;;5090091;28;20179;-58
2022/03/15 11:53:18;;;;;;;4.57;3.27;;;;;;;;;;5081865;28;20219;-58
2022/03/15 11:55:53;;;;;;;6.40;3.17;;;;;;;;;;5090599;28;20543;-58
2022/03/15 11:58:26;;;;;;;6.33;3.33;;;;;;;;;;5072793;28;20325;-56
2022/03/15 12:00:53;;;;;;;4.37;2.93;;;;;;;;;;5085310;28;20559;-58
2022/03/15 12:03:22;;;;;;;6.47;3.07;;;;;;;;;;5111409;28;20163;-56
2022/03/15 12:05:51;;;;;;;4.43;2.87;;;;;;;;;;5108151;28;20183;-56
2022/03/15 12:08:18;;;;;;;4.13;2.73;;;;;;;;;;5089406;28;20168;-57
2022/03/15 12:10:51;;;;;;;5.00;2.90;;;;;;;;;;5088919;28;20692;-56
2022/03/15 12:13:18;;;;;;;4.00;2.70;;;;;;;;;;5090841;28;20223;-56
2022/03/15 12:15:48;;;;;;;5.77;2.80;;;;;;;;;;5088276;28;20180;-57
2022/03/15 12:21:04;;;;;;;3.93;3.17;;;;;;;;;;5102991;28;20206;-58
2022/03/15 12:23:39;;;;;;;4.27;2.73;;;;;;;;;;5087745;28;20203;-58
2022/03/15 12:26:05;;;;;;;3.70;2.87;;;;;;;;;;5071238;28;20209;-57
2022/03/15 12:28:32;;;;;;;4.23;2.90;;;;;;;;;;5090837;28;20187;-57
2022/03/15 12:31:05;;;;;;;3.17;2.80;;;;;;;;;;5089883;28;20203;-56
2022/03/15 12:33:31;;;;;;;5.57;2.93;;;;;;;;;;5090617;28;20524;-57
2022/03/15 12:36:16;;;;;;;4.40;2.63;;;;;;;;;;5090355;28;20306;-57
2022/03/15 12:38:42;;;;;;;3.93;3.03;;;;;;;;;;5089272;28;20623;-56
2022/03/15 12:41:08;;;;;;;5.27;3.37;;;;;;;;;;5090270;28;20599;-56
2022/03/15 12:43:35;;;;;;;7.50;3.50;;;;;;;;;;5089102;28;20199;-57
2022/03/15 12:46:03;;;;;;;3.30;2.77;;;;;;;;;;5090604;28;20201;-56
2022/03/15 12:48:31;;;;;;;4.20;3.00;;;;;;;;;;5072052;28;20171;-57
2022/03/15 12:50:59;;;;;;;4.40;3.10;;;;;;;;;;5068668;28;20230;-57
2022/03/15 12:53:42;;;;;;;3.40;3.10;;;;;;;;;;5088256;28;20714;-56
2022/03/15 12:56:10;;;;;;;7.17;3.10;;;;;;;;;;5099131;28;20724;-56
2022/03/15 12:58:37;;;;;;;4.13;3.23;;;;;;;;;;5071820;28;20226;-57
2022/03/15 13:01:03;;;;;;;4.60;2.80;;;;;;;;;;5091416;28;20179;-55
2022/03/15 13:03:29;;;;;;;5.57;3.50;;;;;;;;;;5087931;28;20207;-56
2022/03/15 13:05:57;;;;;;;4.37;3.40;;;;;;;;;;5088532;28;20178;-57
2022/03/15 13:08:24;;;;;;;5.10;3.13;;;;;;;;;;5084537;28;20179;-56
2022/03/15 13:10:52;;;;;;;4.20;3.30;;;;;;;;;;5092322;28;20180;-56
2022/03/15 13:13:18;;;;;;;4.77;2.60;;;;;;;;;;5091848;28;20247;-56
2022/03/15 13:15:48;;;;;;;3.70;2.60;;;;;;;;;;5093881;28;20179;-56
2022/03/15 13:18:21;;;;;;;5.17;2.63;;;;;;;;;;5089268;28;20176;-56
2022/03/15 13:20:48;;;;;;;2.63;2.43;;;;;;;;;;5081576;28;20185;-56
2022/03/15 13:23:16;;;;;;;5.13;3.90;;;;;;;;;;5079258;28;20175;-56
2022/03/15 13:25:44;;;;;;;5.03;3.47;;;;;;;;;;5082358;28;20263;-56
2022/03/15 13:28:27;;;;;;;3.90;2.70;;;;;;;;;;5082751;28;20218;-56
2022/03/15 13:30:59;;;;;;;4.80;3.00;;;;;;;;;;5067080;28;20589;-56
2022/03/15 13:33:38;;;;;;;5.97;2.90;;;;;;;;;;5065933;28;20258;-56
2022/03/15 13:36:08;;;;;;;4.77;2.87;;;;;;;;;;5059014;28;20173;-57
2022/03/15 13:38:36;;;;;;;4.20;2.93;;;;;;;;;;5085589;28;20570;-56
2022/03/15 13:41:05;;;;;;;4.20;2.37;;;;;;;;;;5071224;28;20262;-56
2022/03/15 13:43:32;;;;;;;4.40;2.33;;;;;;;;;;5069598;28;20814;-56
2022/03/15 13:46:08;;;;;;;3.03;2.30;;;;;;;;;;5078762;28;20178;-56
2022/03/15 13:48:35;;;;;;;3.63;2.23;;;;;;;;;;5080826;28;20176;-56
2022/03/15 13:51:04;;;;;;;2.80;2.10;;;;;;;;;;5084214;28;20797;-56
2022/03/15 13:53:31;;;;;;;4.87;2.83;;;;;;;;;;5082786;28;20179;-56
2022/03/15 13:56:06;;;;;;;3.87;2.43;;;;;;;;;;5093108;28;20171;-56
2022/03/15 13:58:32;;;;;;;4.03;3.13;;;;;;;;;;5084424;28;20839;-57
2022/03/15 14:01:05;;;;;;;3.50;2.10;;;;;;;;;;5088430;28;20175;-57
2022/03/15 14:03:34;;;;;;;4.43;2.33;;;;;;;;;;5087643;28;20533;-56
2022/03/15 14:06:07;;;;;;;2.90;2.03;;;;;;;;;;5085230;28;20706;-56
2022/03/15 14:08:50;;;;;;;3.83;2.60;;;;;;;;;;5082070;28;20637;-56
2022/03/15 14:11:17;;;;;;;2.53;1.60;;;;;;;;;;5082534;28;20184;-58
2022/03/15 14:13:57;;;;;;;4.03;1.67;;;;;;;;;;5089233;28;20230;-57
2022/03/15 14:16:38;;;;;;;2.27;1.57;;;;;;;;;;5078075;28;20207;-57
2022/03/15 14:19:13;;;;;;;1.83;1.43;;;;;;;;;;5090102;28;20183;-57
2022/03/15 14:21:41;;;;;;;2.37;1.63;;;;;;;;;;5066579;28;20771;-58
2022/03/15 14:24:08;;;;;;;2.00;1.63;;;;;;;;;;5081844;28;20249;-58
2022/03/15 14:26:34;;;;;;;2.93;2.13;;;;;;;;;;5077780;28;20737;-57
2022/03/15 14:29:04;;;;;;;1.60;1.50;;;;;;;;;;5077339;28;20250;-56
2022/03/15 14:31:38;;;;;;;2.00;1.50;;;;;;;;;;5082506;28;20570;-57
2022/03/15 14:34:08;;;;;;;1.83;1.73;;;;;;;;;;5078560;28;20253;-57
2022/03/15 14:36:36;;;;;;;3.80;1.80;;;;;;;;;;5083279;28;20725;-58
2022/03/15 14:39:16;;;;;;;2.10;1.47;;;;;;;;;;5085599;28;20172;-58
2022/03/15 14:41:45;;;;;;;2.90;1.97;;;;;;;;;;5055578;28;20179;-57
2022/03/15 14:44:12;;;;;;;1.47;1.37;;;;;;;;;;5064947;28;20183;-58
2022/03/15 14:46:41;;;;;;;2.47;1.70;;;;;;;;;;5081038;28;20542;-57
2022/03/15 14:49:07;;;;;;;2.03;1.50;;;;;;;;;;5086443;28;20668;-58
2022/03/15 14:51:35;;;;;;;2.00;1.60;;;;;;;;;;5078772;28;20210;-57